Time;durP1;ratioP1;P1;durP2;ratioP2;P2;SDS_P1;SDS_P2;PMS_P1;PMS_P2;Temp;Humidity;BMP_temperature;BMP_pressure;BME280_temperature;BME280_humidity;BME280_pressure;Samples;Min_cycle;Max_cycle;Signal;HPM_P1;HPM_P2
2023/06/19 00:00:19;;;;;;;7.55;5.97;;;;;;;;;;5061579;28;20415;-61
2023/06/19 00:02:46;;;;;;;6.53;5.80;;;;;;;;;;5063201;28;20535;-61
2023/06/19 00:05:14;;;;;;;6.43;5.82;;;;;;;;;;5060096;28;20416;-60
2023/06/19 00:07:41;;;;;;;7.25;5.88;;;;;;;;;;5061605;28;20464;-61
2023/06/19 00:10:08;;;;;;;6.40;5.80;;;;;;;;;;5060151;28;20471;-61
2023/06/19 00:12:35;;;;;;;6.22;5.63;;;;;;;;;;5062869;28;20481;-61
2023/06/19 00:15:02;;;;;;;6.20;5.60;;;;;;;;;;5059437;28;20475;-61
2023/06/19 00:17:31;;;;;;;8.48;6.20;;;;;;;;;;5063151;28;20780;-61
2023/06/19 00:19:58;;;;;;;7.65;5.90;;;;;;;;;;5050316;28;20405;-61
2023/06/19 00:22:26;;;;;;;6.30;5.65;;;;;;;;;;5063241;28;20476;-61
2023/06/19 00:24:53;;;;;;;6.85;6.20;;;;;;;;;;5063443;28;20871;-61
2023/06/19 00:27:20;;;;;;;6.72;5.97;;;;;;;;;;5061927;28;20415;-60
2023/06/19 00:29:47;;;;;;;6.18;5.57;;;;;;;;;;5061400;28;20434;-61
2023/06/19 00:32:14;;;;;;;6.38;5.78;;;;;;;;;;5059306;28;20421;-61
2023/06/19 00:34:43;;;;;;;6.78;5.65;;;;;;;;;;5062306;28;20959;-61
2023/06/19 00:37:13;;;;;;;6.00;5.40;;;;;;;;;;5061545;28;20900;-61
2023/06/19 00:39:40;;;;;;;7.47;5.80;;;;;;;;;;5061070;28;20416;-61
2023/06/19 00:42:07;;;;;;;6.68;5.60;;;;;;;;;;5058685;28;20420;-60
2023/06/19 00:44:34;;;;;;;6.00;5.40;;;;;;;;;;5060405;28;20407;-61
2023/06/19 00:47:02;;;;;;;7.20;6.00;;;;;;;;;;5061958;28;20421;-60
2023/06/19 00:49:31;;;;;;;6.63;6.03;;;;;;;;;;5060555;28;20504;-64
2023/06/19 00:51:59;;;;;;;6.25;5.65;;;;;;;;;;5060993;28;20411;-64
2023/06/19 00:54:26;;;;;;;6.38;5.70;;;;;;;;;;5058592;28;20417;-64
2023/06/19 00:56:54;;;;;;;6.15;5.55;;;;;;;;;;5065697;28;20411;-64
2023/06/19 00:59:22;;;;;;;9.65;5.85;;;;;;;;;;5061166;28;20765;-64
2023/06/19 01:01:49;;;;;;;6.22;5.63;;;;;;;;;;5060135;28;20424;-64
2023/06/19 01:04:16;;;;;;;6.20;5.60;;;;;;;;;;5059063;28;20417;-64
2023/06/19 01:06:45;;;;;;;6.22;5.63;;;;;;;;;;5063104;28;20766;-64
2023/06/19 01:09:16;;;;;;;5.78;5.18;;;;;;;;;;5058610;28;20442;-64
2023/06/19 01:11:44;;;;;;;6.53;5.30;;;;;;;;;;5064128;28;20506;-64
2023/06/19 01:14:19;;;;;;;6.38;5.53;;;;;;;;;;5061817;28;20412;-64
2023/06/19 01:16:47;;;;;;;6.07;5.47;;;;;;;;;;5062196;28;20502;-64
2023/06/19 01:19:20;;;;;;;5.60;5.05;;;;;;;;;;5062089;28;20437;-64
2023/06/19 01:21:47;;;;;;;5.87;5.27;;;;;;;;;;5060540;28;20955;-64
2023/06/19 01:24:17;;;;;;;5.85;5.30;;;;;;;;;;5064074;28;20834;-64
2023/06/19 01:26:45;;;;;;;5.93;5.30;;;;;;;;;;5066288;28;20471;-64
2023/06/19 01:29:13;;;;;;;5.82;5.30;;;;;;;;;;5062237;28;20426;-64
2023/06/19 01:31:44;;;;;;;5.43;4.93;;;;;;;;;;5063930;28;20412;-64
2023/06/19 01:34:12;;;;;;;5.80;5.00;;;;;;;;;;5065479;28;20416;-64
2023/06/19 01:36:39;;;;;;;7.13;5.20;;;;;;;;;;5066045;28;20479;-64
2023/06/19 01:39:06;;;;;;;5.88;5.25;;;;;;;;;;5062190;28;20405;-64
2023/06/19 01:41:35;;;;;;;5.43;4.90;;;;;;;;;;5062183;28;20439;-64
2023/06/19 01:44:02;;;;;;;5.70;5.20;;;;;;;;;;5062887;28;20405;-64
2023/06/19 01:46:29;;;;;;;5.53;4.90;;;;;;;;;;5067811;28;20415;-64
2023/06/19 01:48:56;;;;;;;6.57;5.35;;;;;;;;;;5063579;28;20421;-64
2023/06/19 01:51:23;;;;;;;6.45;5.72;;;;;;;;;;5061809;28;20451;-64
2023/06/19 01:53:51;;;;;;;5.97;5.18;;;;;;;;;;5064727;28;20442;-64
2023/06/19 01:56:18;;;;;;;5.70;5.15;;;;;;;;;;5068754;28;20907;-64
2023/06/19 01:58:46;;;;;;;5.53;4.90;;;;;;;;;;5065655;28;20421;-64
2023/06/19 02:01:13;;;;;;;5.40;4.85;;;;;;;;;;5062379;28;20413;-64
2023/06/19 02:03:40;;;;;;;5.88;5.22;;;;;;;;;;5063970;28;20946;-64
2023/06/19 02:06:07;;;;;;;6.05;5.38;;;;;;;;;;5062862;28;20797;-64
2023/06/19 02:08:34;;;;;;;6.05;5.47;;;;;;;;;;5065309;28;20471;-64
2023/06/19 02:11:01;;;;;;;6.35;5.75;;;;;;;;;;5063614;28;20427;-64
2023/06/19 02:13:28;;;;;;;7.45;5.53;;;;;;;;;;5063258;28;20468;-64
2023/06/19 02:15:56;;;;;;;6.18;5.57;;;;;;;;;;5061541;28;20410;-64
2023/06/19 02:18:23;;;;;;;6.43;5.80;;;;;;;;;;5062770;28;20420;-64
2023/06/19 02:20:50;;;;;;;6.30;5.53;;;;;;;;;;5064418;28;20894;-64
2023/06/19 02:23:17;;;;;;;6.40;5.57;;;;;;;;;;5063405;28;20803;-64
2023/06/19 02:25:44;;;;;;;6.28;5.43;;;;;;;;;;5067280;28;20489;-64
2023/06/19 02:28:11;;;;;;;6.05;5.40;;;;;;;;;;5064288;28;20439;-64
2023/06/19 02:30:38;;;;;;;5.88;5.38;;;;;;;;;;5063130;28;20423;-64
2023/06/19 02:33:06;;;;;;;6.20;5.53;;;;;;;;;;5064790;28;20425;-64
2023/06/19 02:35:33;;;;;;;6.88;5.57;;;;;;;;;;5062640;28;20407;-64
2023/06/19 02:38:00;;;;;;;6.27;5.67;;;;;;;;;;5063439;28;20437;-64
2023/06/19 02:40:27;;;;;;;6.35;5.75;;;;;;;;;;5062752;28;20412;-64
2023/06/19 02:42:54;;;;;;;6.55;5.95;;;;;;;;;;5063059;28;20457;-64
2023/06/19 02:45:21;;;;;;;7.97;5.80;;;;;;;;;;5065612;28;20479;-64
2023/06/19 02:47:50;;;;;;;6.20;5.60;;;;;;;;;;5065571;28;20473;-64
2023/06/19 02:50:18;;;;;;;6.38;5.63;;;;;;;;;;5062706;28;21072;-64
2023/06/19 02:52:45;;;;;;;6.40;5.80;;;;;;;;;;5061543;28;20421;-64
2023/06/19 02:55:12;;;;;;;6.63;5.93;;;;;;;;;;5057742;28;20416;-64
2023/06/19 02:57:39;;;;;;;7.40;6.07;;;;;;;;;;5065424;28;20488;-64
2023/06/19 03:00:06;;;;;;;6.65;5.95;;;;;;;;;;5061428;28;20417;-64
2023/06/19 03:02:34;;;;;;;7.03;6.13;;;;;;;;;;5067588;28;20901;-64
2023/06/19 03:05:01;;;;;;;7.30;6.18;;;;;;;;;;5063467;28;20416;-64
2023/06/19 03:07:29;;;;;;;6.75;6.03;;;;;;;;;;5062975;28;20469;-64
2023/06/19 03:09:56;;;;;;;6.60;6.00;;;;;;;;;;5051546;28;20425;-64
2023/06/19 03:12:23;;;;;;;8.40;6.43;;;;;;;;;;5051710;28;20413;-64
2023/06/19 03:14:50;;;;;;;7.18;6.22;;;;;;;;;;5061651;28;20475;-64
2023/06/19 03:17:17;;;;;;;7.70;6.18;;;;;;;;;;5061366;28;20457;-64
2023/06/19 03:19:44;;;;;;;6.75;5.60;;;;;;;;;;5062885;28;20407;-64
2023/06/19 03:22:11;;;;;;;8.47;5.67;;;;;;;;;;5062837;28;20503;-64
2023/06/19 03:24:39;;;;;;;6.95;4.85;;;;;;;;;;5062261;28;20419;-64
2023/06/19 03:27:07;;;;;;;7.75;4.50;;;;;;;;;;5063466;28;20413;-64
2023/06/19 03:29:34;;;;;;;7.88;4.60;;;;;;;;;;5060518;28;20425;-64
2023/06/19 03:32:01;;;;;;;6.80;4.63;;;;;;;;;;5062592;28;20412;-64
2023/06/19 03:34:28;;;;;;;4.90;4.20;;;;;;;;;;5060902;28;20475;-66
2023/06/19 03:36:55;;;;;;;5.60;4.32;;;;;;;;;;5064419;28;20480;-64
2023/06/19 03:39:22;;;;;;;5.63;4.40;;;;;;;;;;5060154;28;20463;-64
2023/06/19 03:41:50;;;;;;;4.70;4.25;;;;;;;;;;5063706;28;20411;-64
2023/06/19 03:44:17;;;;;;;6.07;4.10;;;;;;;;;;5059655;28;20413;-64
2023/06/19 03:46:44;;;;;;;5.07;4.05;;;;;;;;;;5061070;28;21063;-64
2023/06/19 03:49:11;;;;;;;4.47;4.00;;;;;;;;;;5063892;28;21040;-64
2023/06/19 03:51:38;;;;;;;5.70;4.30;;;;;;;;;;5059853;28;20423;-64
2023/06/19 03:54:05;;;;;;;4.63;3.92;;;;;;;;;;5062084;28;20427;-64
2023/06/19 03:56:32;;;;;;;4.50;4.03;;;;;;;;;;5066547;28;20417;-64
2023/06/19 03:59:00;;;;;;;5.10;4.28;;;;;;;;;;5060978;28;20415;-64
2023/06/19 04:01:27;;;;;;;5.07;4.32;;;;;;;;;;5066304;28;20416;-64
2023/06/19 04:03:54;;;;;;;5.50;4.18;;;;;;;;;;5063381;28;20411;-64
2023/06/19 04:06:21;;;;;;;4.40;4.00;;;;;;;;;;5064677;28;20889;-64
2023/06/19 04:08:48;;;;;;;4.40;4.00;;;;;;;;;;5050649;28;20816;-64
2023/06/19 04:11:15;;;;;;;5.07;4.43;;;;;;;;;;5053414;28;20768;-64
2023/06/19 04:13:42;;;;;;;4.45;3.83;;;;;;;;;;5062177;28;20420;-64
2023/06/19 04:16:11;;;;;;;4.88;3.80;;;;;;;;;;5061809;28;20963;-64
2023/06/19 04:18:38;;;;;;;4.25;3.85;;;;;;;;;;5061746;28;20418;-64
2023/06/19 04:21:04;;;;;;;4.05;3.65;;;;;;;;;;5060292;28;20467;-65
2023/06/19 04:23:31;;;;;;;4.43;3.58;;;;;;;;;;5058958;28;20467;-63
2023/06/19 04:25:58;;;;;;;4.22;3.55;;;;;;;;;;5066232;28;20424;-62
2023/06/19 04:28:26;;;;;;;5.25;3.50;;;;;;;;;;5060206;28;20927;-62
2023/06/19 04:30:59;;;;;;;3.80;3.38;;;;;;;;;;5062418;28;20504;-62
2023/06/19 04:33:28;;;;;;;6.40;3.87;;;;;;;;;;5060740;28;20430;-63
2023/06/19 04:35:55;;;;;;;4.47;3.40;;;;;;;;;;5061973;28;20472;-62
2023/06/19 04:38:23;;;;;;;6.18;3.60;;;;;;;;;;5060170;28;20483;-62
2023/06/19 04:40:50;;;;;;;4.00;3.55;;;;;;;;;;5066895;28;20415;-62
2023/06/19 04:43:17;;;;;;;4.63;3.60;;;;;;;;;;5067487;28;20424;-62
2023/06/19 04:45:45;;;;;;;3.67;3.38;;;;;;;;;;5066996;28;20419;-62
2023/06/19 04:48:12;;;;;;;5.75;3.70;;;;;;;;;;5061684;28;20820;-64
2023/06/19 04:50:40;;;;;;;4.10;3.50;;;;;;;;;;5063338;28;20430;-63
2023/06/19 04:53:07;;;;;;;5.38;3.20;;;;;;;;;;5069411;28;20481;-64
2023/06/19 04:55:34;;;;;;;3.80;3.40;;;;;;;;;;5063063;28;20936;-64
2023/06/19 04:58:01;;;;;;;4.17;3.50;;;;;;;;;;5058861;28;20441;-63
2023/06/19 05:00:28;;;;;;;10.02;3.80;;;;;;;;;;5052637;28;20899;-64
2023/06/19 05:02:59;;;;;;;4.80;3.83;;;;;;;;;;5055443;28;20901;-63
2023/06/19 05:05:26;;;;;;;6.38;3.38;;;;;;;;;;5067380;28;20471;-63
2023/06/19 05:07:54;;;;;;;3.42;3.00;;;;;;;;;;5064126;28;20814;-62
2023/06/19 05:10:21;;;;;;;3.95;3.03;;;;;;;;;;5067847;28;20424;-61
2023/06/19 05:12:48;;;;;;;3.88;3.10;;;;;;;;;;5065686;28;20420;-61
2023/06/19 05:15:15;;;;;;;4.30;2.92;;;;;;;;;;5065232;28;20419;-59
2023/06/19 05:17:42;;;;;;;5.20;3.22;;;;;;;;;;5062917;28;20421;-57
2023/06/19 05:20:11;;;;;;;4.03;3.20;;;;;;;;;;5064694;28;20425;-58
2023/06/19 05:22:38;;;;;;;4.45;2.95;;;;;;;;;;5068718;28;20499;-57
2023/06/19 05:25:07;;;;;;;4.50;2.72;;;;;;;;;;5064439;28;20419;-60
2023/06/19 05:27:34;;;;;;;4.95;2.80;;;;;;;;;;5065254;28;20421;-59
2023/06/19 05:30:01;;;;;;;4.03;2.97;;;;;;;;;;5063389;28;20427;-57
2023/06/19 05:32:28;;;;;;;5.35;3.20;;;;;;;;;;5068155;28;20415;-56
2023/06/19 05:34:55;;;;;;;4.40;2.90;;;;;;;;;;5064052;28;20783;-60
2023/06/19 05:37:22;;;;;;;3.43;2.87;;;;;;;;;;5064101;28;20486;-60
2023/06/19 05:39:49;;;;;;;4.47;3.10;;;;;;;;;;5061709;28;20417;-59
2023/06/19 05:42:18;;;;;;;3.88;2.70;;;;;;;;;;5061968;28;20413;-60
2023/06/19 05:44:45;;;;;;;3.58;2.88;;;;;;;;;;5065356;28;20796;-61
2023/06/19 05:47:12;;;;;;;4.78;3.10;;;;;;;;;;5063413;28;20423;-61
2023/06/19 05:49:40;;;;;;;3.65;2.95;;;;;;;;;;5060903;28;20496;-58
2023/06/19 05:52:08;;;;;;;3.20;2.85;;;;;;;;;;5066127;28;20488;-60
2023/06/19 05:54:35;;;;;;;3.70;2.72;;;;;;;;;;5072680;28;20459;-61
2023/06/19 05:57:02;;;;;;;4.43;2.80;;;;;;;;;;5070908;28;20423;-62
2023/06/19 05:59:30;;;;;;;3.67;2.72;;;;;;;;;;5070048;28;20439;-61
2023/06/19 06:01:57;;;;;;;2.90;2.57;;;;;;;;;;5059328;28;20463;-62
2023/06/19 06:04:24;;;;;;;3.17;2.70;;;;;;;;;;5065369;28;20421;-62
2023/06/19 06:06:51;;;;;;;3.95;2.60;;;;;;;;;;5062194;28;20809;-62
2023/06/19 06:09:18;;;;;;;4.03;2.58;;;;;;;;;;5066673;28;20421;-62
2023/06/19 06:11:45;;;;;;;3.70;2.90;;;;;;;;;;5067831;28;20427;-60
2023/06/19 06:14:12;;;;;;;2.90;2.60;;;;;;;;;;5068533;28;20428;-62
2023/06/19 06:16:40;;;;;;;3.33;2.50;;;;;;;;;;5066715;28;20479;-60
2023/06/19 06:19:07;;;;;;;3.05;2.72;;;;;;;;;;5067759;28;20427;-61
2023/06/19 06:21:34;;;;;;;4.40;2.97;;;;;;;;;;5065931;28;20479;-63
2023/06/19 06:24:01;;;;;;;5.03;2.60;;;;;;;;;;5065247;28;20434;-62
2023/06/19 06:26:28;;;;;;;3.80;2.78;;;;;;;;;;5062062;28;20862;-62
2023/06/19 06:28:56;;;;;;;3.35;2.80;;;;;;;;;;5066042;28;20419;-62
2023/06/19 06:31:23;;;;;;;3.88;2.70;;;;;;;;;;5066310;28;20898;-63
2023/06/19 06:33:51;;;;;;;2.73;2.43;;;;;;;;;;5064353;28;20496;-60
2023/06/19 06:36:18;;;;;;;5.18;2.97;;;;;;;;;;5066094;28;20414;-64
2023/06/19 06:38:46;;;;;;;3.50;2.63;;;;;;;;;;5063600;28;20412;-61
2023/06/19 06:41:13;;;;;;;4.15;2.85;;;;;;;;;;5059183;28;20432;-62
2023/06/19 06:43:43;;;;;;;3.40;2.72;;;;;;;;;;5064831;28;20453;-58
2023/06/19 06:46:10;;;;;;;3.85;2.65;;;;;;;;;;5062254;28;20411;-62
2023/06/19 06:48:37;;;;;;;3.90;2.93;;;;;;;;;;5064662;28;20438;-61
2023/06/19 06:51:05;;;;;;;4.88;3.00;;;;;;;;;;5071953;28;20454;-62
2023/06/19 06:53:32;;;;;;;3.58;2.83;;;;;;;;;;5071702;28;20423;-61
2023/06/19 06:56:00;;;;;;;5.57;2.90;;;;;;;;;;5069105;28;20424;-63
2023/06/19 06:58:27;;;;;;;4.85;3.15;;;;;;;;;;5064272;28;20415;-61
2023/06/19 07:00:54;;;;;;;5.10;2.70;;;;;;;;;;5065724;28;20884;-60
2023/06/19 07:03:21;;;;;;;4.57;2.60;;;;;;;;;;5066261;28;20415;-64
2023/06/19 07:05:48;;;;;;;4.05;2.58;;;;;;;;;;5065373;28;20823;-62
2023/06/19 07:08:17;;;;;;;3.58;2.60;;;;;;;;;;5063546;28;20475;-61
2023/06/19 07:10:44;;;;;;;2.90;2.40;;;;;;;;;;5059460;28;21251;-62
2023/06/19 07:13:11;;;;;;;4.68;2.20;;;;;;;;;;5065513;28;20423;-64
2023/06/19 07:15:38;;;;;;;3.17;2.30;;;;;;;;;;5063262;28;20474;-63
2023/06/19 07:18:05;;;;;;;3.53;2.50;;;;;;;;;;5061704;28;20429;-62
2023/06/19 07:20:32;;;;;;;3.63;2.47;;;;;;;;;;5066298;28;20896;-63
2023/06/19 07:23:00;;;;;;;4.10;2.70;;;;;;;;;;5062977;28;20419;-62
2023/06/19 07:25:28;;;;;;;4.00;2.70;;;;;;;;;;5064492;28;20778;-63
2023/06/19 07:27:55;;;;;;;3.88;2.50;;;;;;;;;;5062567;28;20907;-63
2023/06/19 07:30:22;;;;;;;4.72;2.72;;;;;;;;;;5059509;28;20475;-62
2023/06/19 07:32:49;;;;;;;3.40;2.77;;;;;;;;;;5064220;28;20428;-64
2023/06/19 07:35:16;;;;;;;3.90;2.50;;;;;;;;;;5065789;28;20417;-64
2023/06/19 07:37:43;;;;;;;3.17;2.50;;;;;;;;;;5055635;28;20421;-65
2023/06/19 07:40:11;;;;;;;3.90;2.70;;;;;;;;;;5066730;28;20424;-63
2023/06/19 07:42:39;;;;;;;4.10;2.53;;;;;;;;;;5059538;28;20419;-63
2023/06/19 07:45:07;;;;;;;4.32;2.90;;;;;;;;;;5063459;28;20991;-63
2023/06/19 07:47:34;;;;;;;4.90;2.80;;;;;;;;;;5062597;28;20469;-64
2023/06/19 07:50:00;;;;;;;3.92;2.97;;;;;;;;;;5061328;28;20424;-65
2023/06/19 07:52:27;;;;;;;4.60;3.03;;;;;;;;;;5067055;28;20425;-65
2023/06/19 07:54:56;;;;;;;6.22;3.20;;;;;;;;;;5069226;28;20896;-65
2023/06/19 07:57:23;;;;;;;4.95;2.80;;;;;;;;;;5066359;28;20417;-65
2023/06/19 07:59:52;;;;;;;3.60;3.03;;;;;;;;;;5062726;28;20416;-65
2023/06/19 08:02:19;;;;;;;5.05;3.00;;;;;;;;;;5065809;28;20941;-62
2023/06/19 08:04:46;;;;;;;4.57;2.90;;;;;;;;;;5069942;28;20424;-62
2023/06/19 08:07:13;;;;;;;4.30;3.08;;;;;;;;;;5064022;28;20415;-63
2023/06/19 08:09:40;;;;;;;4.28;3.10;;;;;;;;;;5060977;28;20418;-60
2023/06/19 08:12:08;;;;;;;5.70;3.22;;;;;;;;;;5065986;28;20424;-63
2023/06/19 08:14:35;;;;;;;3.33;2.95;;;;;;;;;;5062341;28;20422;-63
2023/06/19 08:17:03;;;;;;;4.18;3.17;;;;;;;;;;5058381;28;20923;-64
2023/06/19 08:19:30;;;;;;;4.20;2.85;;;;;;;;;;5060002;28;20932;-62
2023/06/19 08:21:57;;;;;;;6.53;3.10;;;;;;;;;;5061019;28;20491;-62
2023/06/19 08:24:24;;;;;;;4.53;3.10;;;;;;;;;;5058943;28;20459;-63
2023/06/19 08:26:52;;;;;;;4.47;3.00;;;;;;;;;;5064646;28;20461;-63
2023/06/19 08:29:19;;;;;;;4.03;3.07;;;;;;;;;;5058472;28;21012;-62
2023/06/19 08:31:46;;;;;;;3.95;2.80;;;;;;;;;;5069656;28;20795;-64
2023/06/19 08:34:14;;;;;;;4.32;2.80;;;;;;;;;;5062108;28;20474;-63
2023/06/19 08:36:41;;;;;;;3.30;3.00;;;;;;;;;;5062003;28;20484;-63
2023/06/19 08:39:08;;;;;;;4.05;2.90;;;;;;;;;;5062184;28;20792;-64
2023/06/19 08:41:36;;;;;;;5.05;3.10;;;;;;;;;;5065815;28;20437;-64
2023/06/19 08:44:04;;;;;;;3.22;2.92;;;;;;;;;;5055756;28;20421;-64
2023/06/19 08:46:31;;;;;;;6.70;2.72;;;;;;;;;;5060702;28;20429;-63
2023/06/19 08:48:59;;;;;;;4.70;2.60;;;;;;;;;;5060068;28;20473;-62
2023/06/19 08:51:28;;;;;;;4.88;2.50;;;;;;;;;;5066336;28;20791;-62
2023/06/19 08:53:56;;;;;;;4.03;2.03;;;;;;;;;;5061929;28;20420;-64
2023/06/19 08:56:23;;;;;;;3.63;2.25;;;;;;;;;;5066694;28;20415;-63
2023/06/19 08:58:50;;;;;;;3.83;2.35;;;;;;;;;;5069046;28;20419;-62
2023/06/19 09:01:19;;;;;;;2.63;1.95;;;;;;;;;;5062841;28;20422;-61
2023/06/19 09:03:46;;;;;;;2.85;2.28;;;;;;;;;;5058532;28;20413;-60
2023/06/19 09:06:16;;;;;;;3.35;2.50;;;;;;;;;;5059274;28;20424;-63
2023/06/19 09:08:44;;;;;;;3.97;2.40;;;;;;;;;;5065267;28;20923;-64
2023/06/19 09:11:13;;;;;;;3.20;2.58;;;;;;;;;;5061122;28;20426;-64
2023/06/19 09:13:40;;;;;;;4.70;2.47;;;;;;;;;;5065071;28;20772;-61
2023/06/19 09:16:08;;;;;;;3.10;2.22;;;;;;;;;;5059540;28;20416;-64
2023/06/19 09:18:44;;;;;;;3.80;2.50;;;;;;;;;;5060606;28;20484;-63
2023/06/19 09:21:17;;;;;;;2.83;2.27;;;;;;;;;;5056466;28;21119;-63
2023/06/19 09:23:46;;;;;;;4.30;2.90;;;;;;;;;;5060138;28;20469;-63
2023/06/19 09:26:15;;;;;;;4.45;2.30;;;;;;;;;;5063859;28;20884;-63
2023/06/19 09:28:43;;;;;;;5.20;2.60;;;;;;;;;;5058376;28;20417;-63
2023/06/19 09:31:10;;;;;;;5.68;2.55;;;;;;;;;;5057643;28;21252;-67
2023/06/19 09:33:37;;;;;;;3.28;2.65;;;;;;;;;;5064665;28;20476;-63
2023/06/19 09:36:05;;;;;;;3.25;2.80;;;;;;;;;;5059561;28;20413;-60
2023/06/19 09:38:32;;;;;;;4.53;2.83;;;;;;;;;;5057682;28;20427;-60
2023/06/19 09:41:02;;;;;;;3.95;2.78;;;;;;;;;;5057239;28;20415;-63
2023/06/19 09:43:34;;;;;;;4.83;2.60;;;;;;;;;;5063024;28;20969;-58
2023/06/19 09:46:01;;;;;;;3.17;2.80;;;;;;;;;;5060985;28;20577;-60
2023/06/19 09:48:30;;;;;;;4.37;2.80;;;;;;;;;;5062238;28;20459;-62
2023/06/19 09:51:01;;;;;;;5.97;2.83;;;;;;;;;;5064966;28;20443;-58
2023/06/19 09:53:29;;;;;;;4.00;2.80;;;;;;;;;;5072053;28;20843;-57
2023/06/19 09:55:56;;;;;;;5.35;2.63;;;;;;;;;;5067470;28;20771;-59
2023/06/19 09:58:25;;;;;;;5.60;3.00;;;;;;;;;;5067866;28;21004;-62
2023/06/19 10:00:54;;;;;;;4.82;2.65;;;;;;;;;;5063441;28;20477;-63
2023/06/19 10:03:22;;;;;;;4.47;3.13;;;;;;;;;;5065933;28;20462;-61
2023/06/19 10:05:58;;;;;;;4.88;2.90;;;;;;;;;;5060909;28;20445;-60
2023/06/19 10:08:30;;;;;;;8.73;3.30;;;;;;;;;;5062281;28;20501;-59
2023/06/19 10:10:57;;;;;;;4.70;2.90;;;;;;;;;;5061907;28;20413;-63
2023/06/19 10:13:32;;;;;;;5.03;2.83;;;;;;;;;;5069641;28;20461;-62
2023/06/19 10:15:59;;;;;;;7.18;3.10;;;;;;;;;;5061726;28;20844;-63
2023/06/19 10:18:26;;;;;;;5.38;3.15;;;;;;;;;;5060882;28;20420;-64
2023/06/19 10:20:54;;;;;;;3.85;2.72;;;;;;;;;;5062632;28;20422;-63
2023/06/19 10:23:23;;;;;;;4.70;3.10;;;;;;;;;;5062545;28;20489;-61
2023/06/19 10:25:56;;;;;;;4.97;3.10;;;;;;;;;;5070937;28;20424;-62
2023/06/19 10:28:25;;;;;;;6.80;3.15;;;;;;;;;;5060326;28;20417;-61
2023/06/19 10:30:57;;;;;;;3.83;3.03;;;;;;;;;;5061201;28;20809;-67
2023/06/19 10:33:24;;;;;;;5.93;3.50;;;;;;;;;;5065795;28;20428;-63
2023/06/19 10:35:51;;;;;;;6.18;3.50;;;;;;;;;;5064170;28;20420;-63
2023/06/19 10:38:19;;;;;;;5.88;3.28;;;;;;;;;;5064490;28;20495;-63
2023/06/19 10:40:46;;;;;;;5.83;3.10;;;;;;;;;;5065304;28;20802;-61
2023/06/19 10:43:13;;;;;;;6.20;3.25;;;;;;;;;;5065506;28;20430;-64
2023/06/19 10:45:40;;;;;;;4.60;3.30;;;;;;;;;;5068895;28;20411;-62
2023/06/19 10:48:10;;;;;;;4.43;3.30;;;;;;;;;;5064890;28;20419;-65
2023/06/19 10:50:40;;;;;;;6.63;3.35;;;;;;;;;;5059706;28;20471;-65
2023/06/19 10:53:08;;;;;;;4.45;3.45;;;;;;;;;;5064875;28;20435;-64
2023/06/19 10:55:35;;;;;;;6.13;3.55;;;;;;;;;;5064091;28;20501;-65
2023/06/19 10:58:02;;;;;;;4.17;3.30;;;;;;;;;;5068119;28;20822;-63
2023/06/19 11:00:30;;;;;;;5.55;3.55;;;;;;;;;;5061868;28;20421;-64
2023/06/19 11:02:57;;;;;;;5.35;3.50;;;;;;;;;;5065131;28;20419;-63
2023/06/19 11:05:26;;;;;;;6.88;3.90;;;;;;;;;;5060864;28;20409;-66
2023/06/19 11:07:54;;;;;;;8.88;4.00;;;;;;;;;;5058956;28;20885;-63
2023/06/19 11:10:22;;;;;;;6.32;4.05;;;;;;;;;;5067234;28;20423;-65
2023/06/19 11:12:49;;;;;;;5.17;4.07;;;;;;;;;;5062407;28;20431;-64
2023/06/19 11:15:16;;;;;;;5.43;3.70;;;;;;;;;;5061666;28;20420;-65
2023/06/19 11:17:43;;;;;;;6.03;4.07;;;;;;;;;;5061159;28;20780;-63
2023/06/19 11:20:11;;;;;;;6.15;3.83;;;;;;;;;;5062219;28;20427;-67
2023/06/19 11:22:41;;;;;;;5.22;4.18;;;;;;;;;;5060722;28;20436;-62
2023/06/19 11:25:08;;;;;;;6.22;4.07;;;;;;;;;;5063412;28;20419;-64
2023/06/19 11:27:39;;;;;;;5.75;3.55;;;;;;;;;;5061902;28;20417;-64
2023/06/19 11:30:07;;;;;;;5.57;3.92;;;;;;;;;;5058765;28;20882;-62
2023/06/19 11:32:35;;;;;;;4.82;3.78;;;;;;;;;;5061900;28;20491;-63
2023/06/19 11:35:07;;;;;;;5.03;3.80;;;;;;;;;;5061462;28;20423;-62
2023/06/19 11:37:35;;;;;;;4.68;3.80;;;;;;;;;;5061814;28;20509;-65
2023/06/19 11:40:10;;;;;;;4.78;3.75;;;;;;;;;;5067735;28;20418;-62
2023/06/19 11:42:45;;;;;;;5.43;4.28;;;;;;;;;;5062290;28;20407;-62
2023/06/19 11:45:12;;;;;;;7.35;4.30;;;;;;;;;;5064261;28;20407;-62
2023/06/19 11:47:39;;;;;;;5.40;3.70;;;;;;;;;;5062047;28;20407;-64
2023/06/19 11:50:07;;;;;;;6.20;3.70;;;;;;;;;;5061150;28;20416;-64
2023/06/19 11:52:34;;;;;;;5.27;4.03;;;;;;;;;;5063624;28;20512;-60
2023/06/19 11:55:01;;;;;;;4.85;3.78;;;;;;;;;;5060201;28;20427;-59
2023/06/19 11:57:29;;;;;;;6.15;3.70;;;;;;;;;;5061915;28;20409;-61
2023/06/19 11:59:56;;;;;;;5.05;3.40;;;;;;;;;;5063436;28;20896;-57
2023/06/19 12:02:23;;;;;;;7.97;4.00;;;;;;;;;;5056704;28;20426;-62
2023/06/19 12:04:50;;;;;;;6.30;3.80;;;;;;;;;;5067769;28;20416;-62
2023/06/19 12:07:17;;;;;;;4.72;3.50;;;;;;;;;;5061157;28;20426;-62
2023/06/19 12:09:44;;;;;;;4.68;3.60;;;;;;;;;;5064231;28;20419;-63
2023/06/19 12:12:11;;;;;;;6.90;3.50;;;;;;;;;;5064319;28;20540;-62
2023/06/19 12:14:40;;;;;;;31.70;4.80;;;;;;;;;;5063270;28;20502;-66
2023/06/19 12:17:07;;;;;;;22.73;7.55;;;;;;;;;;5062115;28;20416;-64
2023/06/19 12:19:33;;;;;;;4.47;3.72;;;;;;;;;;5063601;28;20423;-63
2023/06/19 12:22:00;;;;;;;5.38;3.78;;;;;;;;;;5059841;28;20417;-62
2023/06/19 12:24:27;;;;;;;5.50;3.50;;;;;;;;;;5063866;28;20488;-62
2023/06/19 12:26:54;;;;;;;6.28;3.85;;;;;;;;;;5060471;28;20416;-63
2023/06/19 12:29:21;;;;;;;4.95;3.97;;;;;;;;;;5061067;28;20412;-63
2023/06/19 12:31:50;;;;;;;7.45;4.13;;;;;;;;;;5063487;28;20822;-63
2023/06/19 12:34:17;;;;;;;5.63;3.60;;;;;;;;;;5066350;28;20488;-64
2023/06/19 12:36:44;;;;;;;4.57;3.92;;;;;;;;;;5061585;28;20473;-63
2023/06/19 12:39:16;;;;;;;5.50;3.70;;;;;;;;;;5059676;28;20420;-70
2023/06/19 12:41:43;;;;;;;5.30;4.00;;;;;;;;;;5061369;28;20902;-67
2023/06/19 12:44:10;;;;;;;7.75;3.95;;;;;;;;;;5060027;28;20473;-63
2023/06/19 12:46:37;;;;;;;6.00;3.95;;;;;;;;;;5061471;28;20909;-67
2023/06/19 12:49:05;;;;;;;5.20;3.80;;;;;;;;;;5055930;28;20440;-63
2023/06/19 12:51:32;;;;;;;5.40;3.83;;;;;;;;;;5062283;28;20421;-64
2023/06/19 12:53:59;;;;;;;5.60;3.63;;;;;;;;;;5069130;28;20476;-64
2023/06/19 12:56:26;;;;;;;6.53;4.30;;;;;;;;;;5064917;28;20934;-62
2023/06/19 12:58:53;;;;;;;5.88;3.85;;;;;;;;;;5062719;28;20415;-63
2023/06/19 13:01:20;;;;;;;7.30;4.07;;;;;;;;;;5058856;28;20471;-62
2023/06/19 13:03:47;;;;;;;7.60;3.83;;;;;;;;;;5061210;28;20473;-63
2023/06/19 13:06:16;;;;;;;6.78;3.72;;;;;;;;;;5067351;28;20469;-62
2023/06/19 13:08:45;;;;;;;5.40;4.10;;;;;;;;;;5062210;28;20479;-64
2023/06/19 13:11:12;;;;;;;5.35;4.13;;;;;;;;;;5064742;28;20514;-64
2023/06/19 13:13:38;;;;;;;6.00;4.25;;;;;;;;;;5068046;28;20908;-63
2023/06/19 13:16:05;;;;;;;4.25;3.75;;;;;;;;;;5065464;28;20484;-63
2023/06/19 13:18:32;;;;;;;5.03;3.90;;;;;;;;;;5067782;28;20411;-62
2023/06/19 13:20:59;;;;;;;5.00;4.00;;;;;;;;;;5067151;28;20419;-64
2023/06/19 13:23:28;;;;;;;6.75;4.35;;;;;;;;;;5065022;28;20835;-62
2023/06/19 13:25:55;;;;;;;5.53;4.25;;;;;;;;;;5069051;28;20419;-62
2023/06/19 13:28:22;;;;;;;8.52;4.38;;;;;;;;;;5069014;28;20416;-65
2023/06/19 13:30:49;;;;;;;5.90;4.30;;;;;;;;;;5071572;28;20476;-64
2023/06/19 13:33:16;;;;;;;5.07;4.13;;;;;;;;;;5067881;28;20425;-62
2023/06/19 13:35:43;;;;;;;5.80;4.30;;;;;;;;;;5066836;28;20468;-64
2023/06/19 13:38:10;;;;;;;5.35;3.97;;;;;;;;;;5064028;28;20421;-67
2023/06/19 13:40:38;;;;;;;5.90;3.93;;;;;;;;;;5067577;28;20451;-65
2023/06/19 13:43:06;;;;;;;8.10;4.22;;;;;;;;;;5064247;28;20441;-63
2023/06/19 13:45:33;;;;;;;4.83;4.03;;;;;;;;;;5062530;28;20460;-65
2023/06/19 13:48:00;;;;;;;7.60;4.07;;;;;;;;;;5063328;28;20458;-63
2023/06/19 13:50:27;;;;;;;4.40;3.78;;;;;;;;;;5063660;28;20412;-64
2023/06/19 13:52:54;;;;;;;5.53;4.05;;;;;;;;;;5063135;28;20430;-63
2023/06/19 13:55:22;;;;;;;6.18;4.10;;;;;;;;;;5065911;28;20425;-59
2023/06/19 13:57:52;;;;;;;5.57;3.90;;;;;;;;;;5067143;28;20423;-60
2023/06/19 14:00:19;;;;;;;5.70;4.40;;;;;;;;;;5063058;28;20455;-63
2023/06/19 14:02:47;;;;;;;7.20;4.30;;;;;;;;;;5061380;28;20475;-62
2023/06/19 14:05:14;;;;;;;5.35;4.35;;;;;;;;;;5063279;28;20420;-68
2023/06/19 14:07:42;;;;;;;5.97;4.38;;;;;;;;;;5067905;28;20421;-63
2023/06/19 14:10:10;;;;;;;5.30;4.80;;;;;;;;;;5062697;28;20827;-64
2023/06/19 14:12:37;;;;;;;5.45;4.70;;;;;;;;;;5063866;28;20411;-62
2023/06/19 14:15:08;;;;;;;5.63;4.53;;;;;;;;;;5062585;28;20420;-64
2023/06/19 14:17:35;;;;;;;7.25;4.47;;;;;;;;;;5061820;28;20420;-64
2023/06/19 14:20:04;;;;;;;5.15;4.57;;;;;;;;;;5063127;28;20821;-61
2023/06/19 14:22:31;;;;;;;6.50;4.38;;;;;;;;;;5062453;28;20420;-62
2023/06/19 14:24:59;;;;;;;5.22;4.40;;;;;;;;;;5062306;28;20415;-66
2023/06/19 14:27:26;;;;;;;5.70;4.45;;;;;;;;;;5064359;28;20427;-63
2023/06/19 14:29:54;;;;;;;5.82;4.22;;;;;;;;;;5066785;28;20411;-66
2023/06/19 14:32:23;;;;;;;6.05;4.30;;;;;;;;;;5063160;28;20429;-65
2023/06/19 14:34:50;;;;;;;5.82;4.53;;;;;;;;;;5062437;28;20432;-64
2023/06/19 14:37:17;;;;;;;5.22;4.60;;;;;;;;;;5067867;28;20772;-64
2023/06/19 14:39:44;;;;;;;5.10;4.20;;;;;;;;;;5065339;28;20416;-64
2023/06/19 14:42:11;;;;;;;6.03;4.20;;;;;;;;;;5062192;28;20467;-64
2023/06/19 14:44:38;;;;;;;7.03;4.50;;;;;;;;;;5068330;28;20880;-65